sensor_id;sensor_type;location;lat;lon;timestamp;temperature;humidity
41557;DHT22;27720;51.992;5.890;2023-02-03T00:00:49;9.80;99.90
41557;DHT22;27720;51.992;5.890;2023-02-03T00:03:15;9.80;99.90
41557;DHT22;27720;51.992;5.890;2023-02-03T00:05:43;9.80;99.90
41557;DHT22;27720;51.992;5.890;2023-02-03T00:08:22;9.80;99.90
41557;DHT22;27720;51.992;5.890;2023-02-03T00:10:51;9.80;99.90
41557;DHT22;27720;51.992;5.890;2023-02-03T00:13:17;9.90;99.90
41557;DHT22;27720;51.992;5.890;2023-02-03T00:15:43;9.90;99.90
41557;DHT22;27720;51.992;5.890;2023-02-03T00:18:12;9.90;99.90
41557;DHT22;27720;51.992;5.890;2023-02-03T00:20:38;9.80;99.90
41557;DHT22;27720;51.992;5.890;2023-02-03T00:23:08;9.90;99.90
41557;DHT22;27720;51.992;5.890;2023-02-03T00:25:35;9.80;99.90
41557;DHT22;27720;51.992;5.890;2023-02-03T00:28:01;9.80;99.90
41557;DHT22;27720;51.992;5.890;2023-02-03T00:30:27;9.80;99.90
41557;DHT22;27720;51.992;5.890;2023-02-03T00:32:56;9.80;99.90
41557;DHT22;27720;51.992;5.890;2023-02-03T00:35:22;9.80;99.90
41557;DHT22;27720;51.992;5.890;2023-02-03T00:37:52;9.80;99.90
41557;DHT22;27720;51.992;5.890;2023-02-03T00:40:21;9.80;99.90
41557;DHT22;27720;51.992;5.890;2023-02-03T00:42:48;9.80;99.90
41557;DHT22;27720;51.992;5.890;2023-02-03T00:45:14;9.80;99.90
41557;DHT22;27720;51.992;5.890;2023-02-03T00:47:40;9.80;99.90
41557;DHT22;27720;51.992;5.890;2023-02-03T00:50:06;9.80;99.90
41557;DHT22;27720;51.992;5.890;2023-02-03T00:52:34;9.90;99.90
41557;DHT22;27720;51.992;5.890;2023-02-03T00:55:01;9.90;99.90
41557;DHT22;27720;51.992;5.890;2023-02-03T00:57:27;9.90;99.90
41557;DHT22;27720;51.992;5.890;2023-02-03T00:59:53;10.00;99.90
41557;DHT22;27720;51.992;5.890;2023-02-03T01:02:19;10.00;99.90
41557;DHT22;27720;51.992;5.890;2023-02-03T01:04:45;10.00;99.90
41557;DHT22;27720;51.992;5.890;2023-02-03T01:07:11;10.00;99.90
41557;DHT22;27720;51.992;5.890;2023-02-03T01:09:37;10.00;99.90
41557;DHT22;27720;51.992;5.890;2023-02-03T01:12:04;9.90;99.90
41557;DHT22;27720;51.992;5.890;2023-02-03T01:14:30;10.00;99.90
41557;DHT22;27720;51.992;5.890;2023-02-03T01:16:57;10.00;99.90
41557;DHT22;27720;51.992;5.890;2023-02-03T01:19:23;9.90;99.90
41557;DHT22;27720;51.992;5.890;2023-02-03T01:21:49;9.90;99.90
41557;DHT22;27720;51.992;5.890;2023-02-03T01:24:15;9.90;99.90
41557;DHT22;27720;51.992;5.890;2023-02-03T01:26:42;10.00;99.90
41557;DHT22;27720;51.992;5.890;2023-02-03T01:29:08;9.90;99.90
41557;DHT22;27720;51.992;5.890;2023-02-03T01:31:36;10.00;99.90
41557;DHT22;27720;51.992;5.890;2023-02-03T01:34:07;10.00;99.90
41557;DHT22;27720;51.992;5.890;2023-02-03T01:36:36;10.00;99.90
41557;DHT22;27720;51.992;5.890;2023-02-03T01:39:05;10.00;99.90
41557;DHT22;27720;51.992;5.890;2023-02-03T01:41:36;10.00;99.90
41557;DHT22;27720;51.992;5.890;2023-02-03T01:44:30;10.00;99.90
41557;DHT22;27720;51.992;5.890;2023-02-03T01:46:48;9.90;99.90
41557;DHT22;27720;51.992;5.890;2023-02-03T01:49:21;9.90;99.90
41557;DHT22;27720;51.992;5.890;2023-02-03T01:51:49;10.00;99.90
41557;DHT22;27720;51.992;5.890;2023-02-03T01:54:44;10.00;99.90
41557;DHT22;27720;51.992;5.890;2023-02-03T01:57:23;10.00;99.90
41557;DHT22;27720;51.992;5.890;2023-02-03T01:59:53;10.00;99.90
41557;DHT22;27720;51.992;5.890;2023-02-03T02:02:21;10.00;99.90
41557;DHT22;27720;51.992;5.890;2023-02-03T02:05:06;10.00;99.90
41557;DHT22;27720;51.992;5.890;2023-02-03T02:07:35;10.00;99.90
41557;DHT22;27720;51.992;5.890;2023-02-03T02:10:05;10.00;99.90
41557;DHT22;27720;51.992;5.890;2023-02-03T02:12:31;10.00;99.90
41557;DHT22;27720;51.992;5.890;2023-02-03T02:14:57;10.00;99.90
41557;DHT22;27720;51.992;5.890;2023-02-03T02:21:12;10.00;99.90
41557;DHT22;27720;51.992;5.890;2023-02-03T02:27:08;9.90;99.90
41557;DHT22;27720;51.992;5.890;2023-02-03T02:35:43;9.90;99.90
41557;DHT22;27720;51.992;5.890;2023-02-03T02:38:22;9.90;99.90
41557;DHT22;27720;51.992;5.890;2023-02-03T02:46:37;10.00;99.90
41557;DHT22;27720;51.992;5.890;2023-02-03T02:49:11;10.00;99.90
41557;DHT22;27720;51.992;5.890;2023-02-03T02:51:40;10.00;99.90
41557;DHT22;27720;51.992;5.890;2023-02-03T02:54:12;10.00;99.90
41557;DHT22;27720;51.992;5.890;2023-02-03T02:56:40;10.00;99.90
41557;DHT22;27720;51.992;5.890;2023-02-03T02:59:08;10.00;99.90
41557;DHT22;27720;51.992;5.890;2023-02-03T03:01:34;10.00;99.90
41557;DHT22;27720;51.992;5.890;2023-02-03T03:04:04;10.00;99.90
41557;DHT22;27720;51.992;5.890;2023-02-03T03:06:41;10.00;99.90
41557;DHT22;27720;51.992;5.890;2023-02-03T03:09:12;10.00;99.90
41557;DHT22;27720;51.992;5.890;2023-02-03T03:15:07;10.00;99.90
41557;DHT22;27720;51.992;5.890;2023-02-03T03:17:42;10.00;99.90
41557;DHT22;27720;51.992;5.890;2023-02-03T03:20:17;10.10;99.90
41557;DHT22;27720;51.992;5.890;2023-02-03T03:22:48;10.10;99.90
41557;DHT22;27720;51.992;5.890;2023-02-03T03:25:17;10.10;99.90
41557;DHT22;27720;51.992;5.890;2023-02-03T03:27:48;10.10;99.90
41557;DHT22;27720;51.992;5.890;2023-02-03T03:30:25;10.00;99.90
41557;DHT22;27720;51.992;5.890;2023-02-03T03:32:51;10.10;99.90
41557;DHT22;27720;51.992;5.890;2023-02-03T03:35:18;10.10;99.90
41557;DHT22;27720;51.992;5.890;2023-02-03T03:37:55;10.10;99.90
41557;DHT22;27720;51.992;5.890;2023-02-03T03:40:35;10.10;99.90
41557;DHT22;27720;51.992;5.890;2023-02-03T03:43:07;10.10;99.90
41557;DHT22;27720;51.992;5.890;2023-02-03T03:45:40;10.10;99.90
41557;DHT22;27720;51.992;5.890;2023-02-03T03:48:18;10.10;99.90
41557;DHT22;27720;51.992;5.890;2023-02-03T03:50:50;10.10;99.90
41557;DHT22;27720;51.992;5.890;2023-02-03T03:53:18;10.10;99.90
41557;DHT22;27720;51.992;5.890;2023-02-03T03:55:50;10.10;99.90
41557;DHT22;27720;51.992;5.890;2023-02-03T03:58:23;10.10;99.90
41557;DHT22;27720;51.992;5.890;2023-02-03T04:00:55;10.10;99.90
41557;DHT22;27720;51.992;5.890;2023-02-03T04:03:44;10.10;99.90
41557;DHT22;27720;51.992;5.890;2023-02-03T04:06:11;10.10;99.90
41557;DHT22;27720;51.992;5.890;2023-02-03T04:08:37;10.10;99.90
41557;DHT22;27720;51.992;5.890;2023-02-03T04:11:04;10.10;99.90
41557;DHT22;27720;51.992;5.890;2023-02-03T04:13:30;10.20;99.90
41557;DHT22;27720;51.992;5.890;2023-02-03T04:15:56;10.20;99.90
41557;DHT22;27720;51.992;5.890;2023-02-03T04:18:22;10.20;99.90
41557;DHT22;27720;51.992;5.890;2023-02-03T04:20:48;10.20;99.90
41557;DHT22;27720;51.992;5.890;2023-02-03T04:23:14;10.20;99.90
41557;DHT22;27720;51.992;5.890;2023-02-03T04:25:40;10.20;99.90
41557;DHT22;27720;51.992;5.890;2023-02-03T04:28:06;10.20;99.90
41557;DHT22;27720;51.992;5.890;2023-02-03T04:30:32;10.20;99.90
41557;DHT22;27720;51.992;5.890;2023-02-03T04:32:58;10.20;99.90
41557;DHT22;27720;51.992;5.890;2023-02-03T04:35:23;10.20;99.90
41557;DHT22;27720;51.992;5.890;2023-02-03T04:37:49;10.20;99.90
41557;DHT22;27720;51.992;5.890;2023-02-03T04:40:18;10.20;99.90
41557;DHT22;27720;51.992;5.890;2023-02-03T04:42:43;10.10;99.90
41557;DHT22;27720;51.992;5.890;2023-02-03T04:45:10;10.20;99.90
41557;DHT22;27720;51.992;5.890;2023-02-03T04:47:38;10.20;99.90
41557;DHT22;27720;51.992;5.890;2023-02-03T04:50:04;10.20;99.90
41557;DHT22;27720;51.992;5.890;2023-02-03T04:52:30;10.20;99.90
41557;DHT22;27720;51.992;5.890;2023-02-03T04:54:56;10.20;99.90
41557;DHT22;27720;51.992;5.890;2023-02-03T04:57:21;10.20;99.90
41557;DHT22;27720;51.992;5.890;2023-02-03T04:59:47;10.20;99.90
41557;DHT22;27720;51.992;5.890;2023-02-03T05:02:13;10.20;99.90
41557;DHT22;27720;51.992;5.890;2023-02-03T05:04:39;10.20;99.90
41557;DHT22;27720;51.992;5.890;2023-02-03T05:07:05;10.20;99.90
41557;DHT22;27720;51.992;5.890;2023-02-03T05:09:30;10.20;99.90
41557;DHT22;27720;51.992;5.890;2023-02-03T05:11:56;10.30;99.90
41557;DHT22;27720;51.992;5.890;2023-02-03T05:14:22;10.20;99.90
41557;DHT22;27720;51.992;5.890;2023-02-03T05:16:48;10.30;99.90
41557;DHT22;27720;51.992;5.890;2023-02-03T05:19:13;10.30;99.90
41557;DHT22;27720;51.992;5.890;2023-02-03T05:21:39;10.20;99.90
41557;DHT22;27720;51.992;5.890;2023-02-03T05:24:05;10.20;99.90
41557;DHT22;27720;51.992;5.890;2023-02-03T05:26:33;10.20;99.90
41557;DHT22;27720;51.992;5.890;2023-02-03T05:29:00;10.30;99.90
41557;DHT22;27720;51.992;5.890;2023-02-03T05:31:26;10.30;99.90
41557;DHT22;27720;51.992;5.890;2023-02-03T05:33:51;10.30;99.90
41557;DHT22;27720;51.992;5.890;2023-02-03T05:36:17;10.30;99.90
41557;DHT22;27720;51.992;5.890;2023-02-03T05:38:43;10.30;99.90
41557;DHT22;27720;51.992;5.890;2023-02-03T05:41:11;10.30;99.90
41557;DHT22;27720;51.992;5.890;2023-02-03T05:43:55;10.30;99.90
41557;DHT22;27720;51.992;5.890;2023-02-03T05:46:21;10.30;99.90
41557;DHT22;27720;51.992;5.890;2023-02-03T05:48:47;10.30;99.90
41557;DHT22;27720;51.992;5.890;2023-02-03T05:51:13;10.30;99.90
41557;DHT22;27720;51.992;5.890;2023-02-03T05:53:38;10.30;99.90
41557;DHT22;27720;51.992;5.890;2023-02-03T05:56:05;10.30;99.90
41557;DHT22;27720;51.992;5.890;2023-02-03T05:58:30;10.30;99.90
41557;DHT22;27720;51.992;5.890;2023-02-03T06:00:56;10.30;99.90
41557;DHT22;27720;51.992;5.890;2023-02-03T06:03:22;10.30;99.90
41557;DHT22;27720;51.992;5.890;2023-02-03T06:05:48;10.30;99.90
41557;DHT22;27720;51.992;5.890;2023-02-03T06:08:13;10.30;99.90
41557;DHT22;27720;51.992;5.890;2023-02-03T06:10:39;10.30;99.90
41557;DHT22;27720;51.992;5.890;2023-02-03T06:13:14;10.30;99.90
41557;DHT22;27720;51.992;5.890;2023-02-03T06:15:40;10.30;99.90
41557;DHT22;27720;51.992;5.890;2023-02-03T06:18:07;10.30;99.90
41557;DHT22;27720;51.992;5.890;2023-02-03T06:20:33;10.30;99.90
41557;DHT22;27720;51.992;5.890;2023-02-03T06:22:59;10.30;99.90
41557;DHT22;27720;51.992;5.890;2023-02-03T06:25:25;10.30;99.90
41557;DHT22;27720;51.992;5.890;2023-02-03T06:27:51;10.30;99.90
41557;DHT22;27720;51.992;5.890;2023-02-03T06:30:17;10.30;99.90
41557;DHT22;27720;51.992;5.890;2023-02-03T06:32:45;10.30;99.90
41557;DHT22;27720;51.992;5.890;2023-02-03T06:35:12;10.30;99.90
41557;DHT22;27720;51.992;5.890;2023-02-03T06:37:38;10.20;99.90
41557;DHT22;27720;51.992;5.890;2023-02-03T06:40:04;10.20;99.90
41557;DHT22;27720;51.992;5.890;2023-02-03T06:42:30;10.30;99.90
41557;DHT22;27720;51.992;5.890;2023-02-03T06:44:56;10.20;99.90
41557;DHT22;27720;51.992;5.890;2023-02-03T06:47:22;10.30;99.90
41557;DHT22;27720;51.992;5.890;2023-02-03T06:49:48;10.30;99.90
41557;DHT22;27720;51.992;5.890;2023-02-03T06:52:14;10.30;99.90
41557;DHT22;27720;51.992;5.890;2023-02-03T06:54:40;10.30;99.90
41557;DHT22;27720;51.992;5.890;2023-02-03T06:57:07;10.30;99.90
41557;DHT22;27720;51.992;5.890;2023-02-03T06:59:33;10.30;99.90
41557;DHT22;27720;51.992;5.890;2023-02-03T07:01:58;10.30;99.90
41557;DHT22;27720;51.992;5.890;2023-02-03T07:04:24;10.30;99.90
41557;DHT22;27720;51.992;5.890;2023-02-03T07:06:56;10.30;99.90
41557;DHT22;27720;51.992;5.890;2023-02-03T07:09:22;10.30;99.90
41557;DHT22;27720;51.992;5.890;2023-02-03T07:11:48;10.30;99.90
41557;DHT22;27720;51.992;5.890;2023-02-03T07:14:14;10.30;99.90
41557;DHT22;27720;51.992;5.890;2023-02-03T07:16:40;10.30;99.90
41557;DHT22;27720;51.992;5.890;2023-02-03T07:19:06;10.30;99.90
41557;DHT22;27720;51.992;5.890;2023-02-03T07:21:32;10.30;99.90
41557;DHT22;27720;51.992;5.890;2023-02-03T07:23:57;10.30;99.90
41557;DHT22;27720;51.992;5.890;2023-02-03T07:26:23;10.30;99.90
41557;DHT22;27720;51.992;5.890;2023-02-03T07:28:51;10.40;99.90
41557;DHT22;27720;51.992;5.890;2023-02-03T07:31:20;10.40;99.90
41557;DHT22;27720;51.992;5.890;2023-02-03T07:33:53;10.30;99.90
41557;DHT22;27720;51.992;5.890;2023-02-03T07:36:19;10.30;99.90
41557;DHT22;27720;51.992;5.890;2023-02-03T07:38:45;10.30;99.90
41557;DHT22;27720;51.992;5.890;2023-02-03T07:41:11;10.30;99.90
41557;DHT22;27720;51.992;5.890;2023-02-03T07:43:37;10.30;99.90
41557;DHT22;27720;51.992;5.890;2023-02-03T07:46:02;10.30;99.90
41557;DHT22;27720;51.992;5.890;2023-02-03T07:48:28;10.30;99.90
41557;DHT22;27720;51.992;5.890;2023-02-03T07:50:54;10.30;99.90
41557;DHT22;27720;51.992;5.890;2023-02-03T07:53:20;10.30;99.90
41557;DHT22;27720;51.992;5.890;2023-02-03T07:55:46;10.30;99.90
41557;DHT22;27720;51.992;5.890;2023-02-03T07:58:14;10.30;99.90
41557;DHT22;27720;51.992;5.890;2023-02-03T08:00:47;10.30;99.90
41557;DHT22;27720;51.992;5.890;2023-02-03T08:04:01;10.30;99.90
41557;DHT22;27720;51.992;5.890;2023-02-03T08:06:39;10.40;99.90
41557;DHT22;27720;51.992;5.890;2023-02-03T08:09:37;10.30;99.90
41557;DHT22;27720;51.992;5.890;2023-02-03T08:12:36;10.30;99.90
41557;DHT22;27720;51.992;5.890;2023-02-03T08:15:22;10.40;99.90
41557;DHT22;27720;51.992;5.890;2023-02-03T08:18:10;10.40;99.90
41557;DHT22;27720;51.992;5.890;2023-02-03T08:20:40;10.40;99.90
41557;DHT22;27720;51.992;5.890;2023-02-03T08:23:08;10.40;99.90
41557;DHT22;27720;51.992;5.890;2023-02-03T08:25:34;10.40;99.90
41557;DHT22;27720;51.992;5.890;2023-02-03T08:28:06;10.50;99.90
41557;DHT22;27720;51.992;5.890;2023-02-03T08:31:06;10.50;99.90
41557;DHT22;27720;51.992;5.890;2023-02-03T08:33:44;10.50;99.90
41557;DHT22;27720;51.992;5.890;2023-02-03T08:36:41;10.50;99.90
41557;DHT22;27720;51.992;5.890;2023-02-03T08:39:27;10.60;99.90
41557;DHT22;27720;51.992;5.890;2023-02-03T08:42:03;10.60;99.90
41557;DHT22;27720;51.992;5.890;2023-02-03T08:44:30;10.60;99.90
41557;DHT22;27720;51.992;5.890;2023-02-03T08:47:24;10.60;99.90
41557;DHT22;27720;51.992;5.890;2023-02-03T08:50:04;10.60;99.90
41557;DHT22;27720;51.992;5.890;2023-02-03T08:52:30;10.60;99.90
41557;DHT22;27720;51.992;5.890;2023-02-03T08:54:56;10.60;99.90
41557;DHT22;27720;51.992;5.890;2023-02-03T08:57:47;10.60;99.90
41557;DHT22;27720;51.992;5.890;2023-02-03T09:00:33;10.70;99.90
41557;DHT22;27720;51.992;5.890;2023-02-03T09:03:17;10.70;99.90
41557;DHT22;27720;51.992;5.890;2023-02-03T09:05:58;10.70;99.90
41557;DHT22;27720;51.992;5.890;2023-02-03T09:08:25;10.70;99.90
41557;DHT22;27720;51.992;5.890;2023-02-03T09:10:53;10.70;99.90
41557;DHT22;27720;51.992;5.890;2023-02-03T09:13:42;10.70;99.90
41557;DHT22;27720;51.992;5.890;2023-02-03T09:16:42;10.70;99.90
41557;DHT22;27720;51.992;5.890;2023-02-03T09:19:26;10.70;99.90
41557;DHT22;27720;51.992;5.890;2023-02-03T09:22:04;10.70;99.90
41557;DHT22;27720;51.992;5.890;2023-02-03T09:24:39;10.80;99.90
41557;DHT22;27720;51.992;5.890;2023-02-03T09:27:22;10.80;99.90
41557;DHT22;27720;51.992;5.890;2023-02-03T09:29:48;10.80;99.90
41557;DHT22;27720;51.992;5.890;2023-02-03T09:32:14;10.90;99.90
41557;DHT22;27720;51.992;5.890;2023-02-03T09:34:45;10.90;99.90
41557;DHT22;27720;51.992;5.890;2023-02-03T09:37:54;10.90;99.90
41557;DHT22;27720;51.992;5.890;2023-02-03T09:41:02;10.90;99.90
41557;DHT22;27720;51.992;5.890;2023-02-03T09:46:21;11.00;99.90
41557;DHT22;27720;51.992;5.890;2023-02-03T09:53:18;11.00;99.90
41557;DHT22;27720;51.992;5.890;2023-02-03T09:55:46;11.00;99.90
41557;DHT22;27720;51.992;5.890;2023-02-03T09:58:18;11.00;99.90
41557;DHT22;27720;51.992;5.890;2023-02-03T10:05:24;11.10;99.90
41557;DHT22;27720;51.992;5.890;2023-02-03T10:08:03;11.10;99.90
41557;DHT22;27720;51.992;5.890;2023-02-03T10:10:57;11.20;99.90
41557;DHT22;27720;51.992;5.890;2023-02-03T10:17:31;11.20;99.90
41557;DHT22;27720;51.992;5.890;2023-02-03T10:20:31;11.20;99.90
41557;DHT22;27720;51.992;5.890;2023-02-03T10:23:38;11.20;99.90
41557;DHT22;27720;51.992;5.890;2023-02-03T10:26:31;11.30;99.90
41557;DHT22;27720;51.992;5.890;2023-02-03T10:29:18;11.30;99.90
41557;DHT22;27720;51.992;5.890;2023-02-03T10:31:53;11.30;99.90
41557;DHT22;27720;51.992;5.890;2023-02-03T10:34:33;11.30;99.90
41557;DHT22;27720;51.992;5.890;2023-02-03T10:41:27;11.40;99.90
41557;DHT22;27720;51.992;5.890;2023-02-03T10:44:14;11.40;99.90
41557;DHT22;27720;51.992;5.890;2023-02-03T10:50:20;11.40;99.90
41557;DHT22;27720;51.992;5.890;2023-02-03T10:52:49;11.40;99.90
41557;DHT22;27720;51.992;5.890;2023-02-03T10:57:56;11.40;99.90
41557;DHT22;27720;51.992;5.890;2023-02-03T11:00:33;11.40;99.90
41557;DHT22;27720;51.992;5.890;2023-02-03T11:03:35;11.50;99.90
41557;DHT22;27720;51.992;5.890;2023-02-03T11:06:12;11.50;99.90
41557;DHT22;27720;51.992;5.890;2023-02-03T11:08:47;11.50;99.90
41557;DHT22;27720;51.992;5.890;2023-02-03T11:14:48;11.50;99.90
41557;DHT22;27720;51.992;5.890;2023-02-03T11:20:43;11.50;99.90
41557;DHT22;27720;51.992;5.890;2023-02-03T11:23:32;11.60;99.90
41557;DHT22;27720;51.992;5.890;2023-02-03T11:25:58;11.60;99.90
41557;DHT22;27720;51.992;5.890;2023-02-03T11:28:45;11.60;99.90
41557;DHT22;27720;51.992;5.890;2023-02-03T11:34:43;11.60;99.90
41557;DHT22;27720;51.992;5.890;2023-02-03T11:37:47;11.60;99.90
41557;DHT22;27720;51.992;5.890;2023-02-03T11:43:17;11.60;99.90
41557;DHT22;27720;51.992;5.890;2023-02-03T11:46:10;11.60;99.90
41557;DHT22;27720;51.992;5.890;2023-02-03T11:48:38;11.60;99.90
41557;DHT22;27720;51.992;5.890;2023-02-03T11:51:36;11.70;99.90
41557;DHT22;27720;51.992;5.890;2023-02-03T12:02:43;11.70;99.90
41557;DHT22;27720;51.992;5.890;2023-02-03T12:05:33;11.70;99.90
